Pocahontas, Virginia
Current Conditions -  °F | °C
As of 6:52 PM on Saturday 22 Nov 2014 (Local Time) from KBLF Reporting Station
Clear Clear  
Wind Chill: 47°   Ceiling: Unl
Heat Index: 49°   Visibility: 10mi
Dew Point: 15°   Wind: 5mph
Humidity: 26%   Direction: 200°SSW
Pressure: 30.25"   Gusts: NA
Location:  37.3°N, 81.34°W
Report Text: KBLF 222352Z AUTO 20004KT 10SM CLR 09/M09 A3025 RMK AO2 SLP251 T00941094 10156 20094 55004
Loading
Personal Weather Stations






























Interactive Weather Map New forecast layout! Learn more

10-Day Weather Forecast

Advertisements
Track Severe Weather on mobile